createdAt,value
2019-02-27T00:01:56.492Z,37.53
2019-02-27T00:04:26.213Z,37.00
2019-02-27T00:06:55.914Z,39.10
2019-02-27T00:09:26.558Z,37.53
2019-02-27T00:11:56.341Z,44.50
2019-02-27T00:14:25.992Z,40.87
2019-02-27T00:16:56.682Z,39.03
2019-02-27T00:19:26.302Z,39.13
2019-02-27T00:21:55.907Z,38.87
2019-02-27T00:24:27.036Z,38.67
2019-02-27T00:26:56.956Z,38.23
2019-02-27T00:29:28.833Z,33.13
2019-02-27T00:31:58.889Z,36.77
2019-02-27T00:34:32.813Z,36.00
2019-02-27T00:36:59.907Z,40.10
2019-02-27T00:39:31.223Z,39.03
2019-02-27T00:42:01.259Z,38.57
2019-02-27T00:44:33.927Z,34.23
2019-02-27T00:47:02.168Z,37.97
2019-02-27T00:49:32.374Z,39.63
2019-02-27T00:52:02.805Z,34.73
2019-02-27T00:54:32.586Z,42.30
2019-02-27T00:57:02.375Z,34.53
2019-02-27T00:59:33.215Z,34.03
2019-02-27T01:02:03.553Z,38.40
2019-02-27T01:04:35.201Z,36.47
2019-02-27T01:07:05.108Z,36.23
2019-02-27T01:09:37.227Z,35.73
2019-02-27T01:12:07.108Z,36.63
2019-02-27T01:14:37.840Z,43.37
2019-02-27T01:17:07.630Z,39.20
2019-02-27T01:19:39.262Z,42.73
2019-02-27T01:22:08.607Z,42.60
2019-02-27T01:24:38.246Z,38.73
2019-02-27T01:27:08.006Z,37.40
2019-02-27T01:29:38.565Z,39.77
2019-02-27T01:32:08.290Z,44.43
2019-02-27T01:34:38.294Z,40.97
2019-02-27T01:37:08.032Z,37.80
2019-02-27T01:39:37.692Z,38.77
2019-02-27T01:42:07.303Z,41.17
2019-02-27T01:44:37.003Z,43.80
2019-02-27T01:47:06.758Z,39.97
2019-02-27T01:49:36.462Z,38.87
2019-02-27T01:52:06.053Z,36.07
2019-02-27T01:54:36.908Z,45.70
2019-02-27T01:57:06.589Z,40.00
2019-02-27T01:59:36.190Z,45.17
2019-02-27T02:02:05.796Z,40.03
2019-02-27T02:04:35.586Z,40.00
2019-02-27T02:07:06.589Z,44.33
2019-02-27T02:09:38.118Z,40.13
2019-02-27T02:12:20.538Z,42.77
2019-02-27T02:15:01.348Z,40.60
2019-02-27T02:18:04.354Z,37.47
2019-02-27T02:20:45.469Z,39.33
2019-02-27T02:23:37.647Z,42.30
2019-02-27T02:26:58.568Z,36.83
2019-02-27T02:30:11.630Z,49.07
2019-02-27T02:32:53.199Z,41.63
2019-02-27T02:35:54.749Z,48.00
2019-02-27T02:38:43.134Z,47.67
2019-02-27T02:41:52.738Z,43.23
2019-02-27T02:44:38.169Z,44.87
2019-02-27T02:47:21.079Z,45.33
2019-02-27T02:50:29.702Z,47.20
2019-02-27T02:53:14.111Z,42.73
2019-02-27T02:56:32.276Z,45.83
2019-02-27T02:59:38.196Z,43.67
2019-02-27T03:02:37.289Z,48.60
2019-02-27T03:05:35.214Z,47.97
2019-02-27T03:08:33.506Z,46.63
2019-02-27T03:11:19.018Z,45.07
2019-02-27T03:14:35.315Z,43.53
2019-02-27T03:18:07.764Z,43.70
2019-02-27T03:21:27.370Z,42.10
2019-02-27T03:24:28.931Z,47.37
2019-02-27T03:27:34.878Z,41.47
2019-02-27T03:31:00.598Z,42.87
2019-02-27T03:34:05.149Z,45.27
2019-02-27T03:36:54.132Z,45.63
2019-02-27T03:39:49.193Z,43.13
2019-02-27T03:42:53.239Z,47.97
2019-02-27T03:45:54.538Z,45.07
2019-02-27T03:48:41.165Z,49.17
2019-02-27T03:51:25.484Z,46.40
2019-02-27T03:54:20.649Z,43.10
2019-02-27T03:57:20.223Z,45.53
2019-02-27T04:00:01.186Z,41.50
2019-02-27T04:03:01.887Z,46.03
2019-02-27T04:05:46.227Z,43.27
2019-02-27T04:08:59.409Z,44.93
2019-02-27T04:11:29.346Z,44.13
2019-02-27T04:14:03.941Z,46.30
2019-02-27T04:16:31.705Z,43.17
2019-02-27T04:19:04.442Z,42.57
2019-02-27T04:21:32.995Z,39.17
2019-02-27T04:24:02.604Z,44.30
2019-02-27T04:26:41.546Z,43.07
2019-02-27T04:29:08.982Z,43.57
2019-02-27T04:31:38.949Z,41.37
2019-02-27T04:34:08.599Z,43.67
2019-02-27T04:36:38.306Z,40.20
2019-02-27T04:39:07.999Z,44.27
2019-02-27T04:41:38.654Z,37.23
2019-02-27T04:44:08.437Z,44.80
2019-02-27T04:46:38.090Z,38.30
2019-02-27T04:49:07.869Z,40.87
2019-02-27T04:51:37.498Z,41.50
2019-02-27T04:54:07.530Z,37.43
2019-02-27T04:56:37.225Z,42.53
2019-02-27T04:59:06.952Z,36.60
2019-02-27T05:01:37.402Z,37.47
2019-02-27T05:04:07.305Z,41.23
2019-02-27T05:06:36.986Z,42.90
2019-02-27T05:09:07.242Z,39.97
2019-02-27T05:11:37.894Z,37.53
2019-02-27T05:14:07.540Z,36.40
2019-02-27T05:16:37.147Z,38.47
2019-02-27T05:19:06.858Z,41.67
2019-02-27T05:21:37.524Z,36.30
2019-02-27T05:24:07.724Z,42.50
2019-02-27T05:26:38.792Z,40.10
2019-02-27T05:29:08.469Z,42.73
2019-02-27T05:31:38.301Z,43.43
2019-02-27T05:34:12.729Z,43.17
2019-02-27T05:36:39.885Z,46.23
2019-02-27T05:39:09.577Z,43.17
2019-02-27T05:41:39.479Z,39.40
2019-02-27T05:44:09.233Z,42.30
2019-02-27T05:46:39.108Z,40.57
2019-02-27T05:49:08.915Z,42.13
2019-02-27T05:51:38.785Z,45.07
2019-02-27T05:54:09.538Z,44.97
2019-02-27T05:56:39.165Z,42.97
2019-02-27T05:59:08.903Z,42.67
2019-02-27T06:01:38.774Z,39.13
2019-02-27T06:04:08.582Z,38.53
2019-02-27T06:06:38.314Z,41.80
2019-02-27T06:09:10.227Z,35.43
2019-02-27T06:11:39.473Z,40.03
2019-02-27T06:14:09.142Z,35.97
2019-02-27T06:16:40.741Z,37.83
2019-02-27T06:19:10.229Z,32.60
2019-02-27T06:21:39.976Z,36.17
2019-02-27T06:24:12.558Z,34.20
2019-02-27T06:26:40.989Z,40.10
2019-02-27T06:29:10.623Z,33.57
2019-02-27T06:31:40.238Z,31.37
2019-02-27T06:34:10.015Z,37.33
2019-02-27T06:36:42.890Z,31.90
2019-02-27T06:39:12.156Z,35.83
2019-02-27T06:41:41.823Z,28.70
2019-02-27T06:44:11.473Z,31.07
2019-02-27T06:46:41.142Z,34.67
2019-02-27T06:49:10.746Z,31.97
2019-02-27T06:51:40.489Z,29.60
2019-02-27T06:54:10.167Z,28.67
2019-02-27T06:56:39.773Z,32.23
2019-02-27T06:59:09.383Z,26.23
2019-02-27T07:01:40.086Z,29.77
2019-02-27T07:04:09.687Z,26.73
2019-02-27T07:06:39.429Z,27.37
2019-02-27T07:09:11.301Z,25.70
2019-02-27T07:11:44.872Z,27.07
2019-02-27T07:14:11.668Z,27.63
2019-02-27T07:16:41.449Z,30.43
2019-02-27T07:19:13.219Z,28.30
2019-02-27T07:21:42.428Z,34.30
2019-02-27T07:24:12.143Z,33.90
2019-02-27T07:26:41.821Z,30.43
2019-02-27T07:29:20.999Z,35.53
2019-02-27T07:31:43.067Z,30.03
2019-02-27T07:34:14.364Z,31.60
2019-02-27T07:36:44.145Z,51.27
2019-02-27T07:39:13.751Z,33.87
2019-02-27T07:41:43.341Z,34.50
2019-02-27T07:44:12.994Z,33.03
2019-02-27T07:46:42.703Z,32.83
2019-02-27T07:49:12.741Z,28.13
2019-02-27T07:51:42.451Z,30.47
2019-02-27T07:54:12.128Z,28.67
2019-02-27T07:56:41.822Z,33.37
2019-02-27T07:59:11.438Z,27.83
2019-02-27T08:01:43.654Z,30.07
2019-02-27T08:04:12.464Z,30.23
2019-02-27T08:06:42.135Z,35.10
2019-02-27T08:09:11.915Z,23.52
2019-02-27T08:11:41.574Z,29.10
2019-02-27T08:14:12.931Z,28.97
2019-02-27T08:16:43.774Z,32.80
2019-02-27T08:19:13.482Z,25.50
2019-02-27T08:21:43.117Z,29.63
2019-02-27T08:24:12.793Z,25.40
2019-02-27T08:26:42.488Z,27.37
2019-02-27T08:29:12.202Z,27.67
2019-02-27T08:31:41.821Z,22.67
2019-02-27T08:34:12.436Z,28.23
2019-02-27T08:36:42.131Z,22.87
2019-02-27T08:39:11.791Z,26.90
2019-02-27T08:41:41.480Z,25.33
2019-02-27T08:44:12.265Z,23.67
2019-02-27T08:46:42.679Z,24.70
2019-02-27T08:49:12.347Z,25.03
2019-02-27T08:51:42.661Z,25.73
2019-02-27T08:54:13.524Z,22.85
2019-02-27T08:56:44.071Z,27.53
2019-02-27T08:59:15.608Z,24.43
2019-02-27T09:01:45.232Z,24.00
2019-02-27T09:04:14.914Z,23.40
2019-02-27T09:06:44.624Z,23.17
2019-02-27T09:09:15.001Z,26.73
2019-02-27T09:11:45.645Z,23.77
2019-02-27T09:14:15.370Z,25.53
2019-02-27T09:16:45.084Z,22.98
2019-02-27T09:19:14.754Z,25.45
2019-02-27T09:21:44.719Z,22.67
2019-02-27T09:24:14.459Z,23.67
2019-02-27T09:26:44.126Z,23.30
2019-02-27T09:29:18.157Z,24.05
2019-02-27T09:31:50.737Z,23.40
2019-02-27T09:34:16.653Z,21.20
2019-02-27T09:36:46.339Z,25.33
2019-02-27T09:39:16.050Z,27.40
2019-02-27T09:41:46.905Z,23.87
2019-02-27T09:44:16.678Z,25.80
2019-02-27T09:46:46.316Z,23.20
2019-02-27T09:49:16.002Z,23.87
2019-02-27T09:51:45.641Z,24.05
2019-02-27T09:54:15.578Z,26.15
2019-02-27T09:56:45.255Z,26.60
2019-02-27T09:59:16.806Z,24.60
2019-02-27T10:01:46.350Z,21.50
2019-02-27T10:04:15.987Z,23.50
2019-02-27T10:06:45.646Z,26.75
2019-02-27T10:09:19.654Z,23.85
2019-02-27T10:11:52.176Z,24.47
2019-02-27T10:14:21.727Z,24.32
2019-02-27T10:16:51.737Z,24.95
2019-02-27T10:19:21.436Z,21.90
2019-02-27T10:21:51.178Z,28.55
2019-02-27T10:24:20.803Z,28.30
2019-02-27T10:26:53.475Z,25.20
2019-02-27T10:29:21.931Z,21.70
2019-02-27T10:31:51.691Z,22.87
2019-02-27T10:34:21.335Z,25.65
2019-02-27T10:36:51.009Z,24.32
2019-02-27T10:39:20.775Z,24.00
2019-02-27T10:41:50.746Z,27.17
2019-02-27T10:44:20.491Z,24.37
2019-02-27T10:46:52.031Z,24.75
2019-02-27T10:49:22.373Z,26.42
2019-02-27T10:51:52.106Z,24.80
2019-02-27T10:54:21.800Z,24.90
2019-02-27T10:56:51.502Z,23.80
2019-02-27T10:59:22.350Z,24.60
2019-02-27T11:01:52.691Z,23.38
2019-02-27T11:04:22.322Z,24.25
2019-02-27T11:06:51.990Z,23.83
2019-02-27T11:09:28.643Z,27.07
2019-02-27T11:11:58.381Z,23.27
2019-02-27T11:14:31.767Z,24.15
2019-02-27T11:17:02.432Z,22.50
2019-02-27T11:19:34.790Z,21.52
2019-02-27T11:22:04.862Z,23.35
2019-02-27T11:24:34.724Z,24.10
2019-02-27T11:27:06.244Z,22.52
2019-02-27T11:29:36.351Z,22.27
2019-02-27T11:32:06.163Z,22.58
2019-02-27T11:34:35.891Z,22.25
2019-02-27T11:37:05.781Z,20.70
2019-02-27T11:41:55.611Z,20.50
2019-02-27T11:44:25.730Z,20.50
2019-02-27T11:46:59.013Z,21.48
2019-02-27T11:49:26.795Z,20.05
2019-02-27T11:51:57.099Z,20.95
2019-02-27T11:54:26.910Z,21.02
2019-02-27T11:56:57.054Z,19.35
2019-02-27T11:59:26.783Z,20.82
2019-02-27T12:01:56.562Z,19.73
2019-02-27T12:04:26.355Z,21.75
2019-02-27T12:06:56.079Z,20.25
2019-02-27T12:09:26.966Z,22.25
2019-02-27T12:11:56.635Z,18.77
2019-02-27T12:14:26.413Z,18.27
2019-02-27T12:16:56.132Z,19.73
2019-02-27T12:19:25.771Z,17.23
2019-02-27T12:21:59.494Z,17.35
2019-02-27T12:24:27.138Z,18.90
2019-02-27T12:26:56.879Z,18.57
2019-02-27T12:29:27.315Z,16.97
2019-02-27T12:31:57.087Z,17.23
2019-02-27T12:34:26.772Z,19.02
2019-02-27T12:36:56.470Z,18.12
2019-02-27T12:39:26.210Z,17.60
2019-02-27T12:41:55.844Z,20.97
2019-02-27T12:44:25.631Z,17.75
2019-02-27T12:46:55.656Z,19.05
2019-02-27T12:49:25.343Z,20.02
2019-02-27T12:51:55.124Z,21.68
2019-02-27T12:54:26.856Z,19.65
2019-02-27T12:56:57.221Z,17.70
2019-02-27T12:59:26.876Z,20.10
2019-02-27T13:01:56.572Z,18.70
2019-02-27T13:04:26.239Z,19.10
2019-02-27T13:06:55.886Z,21.52
2019-02-27T13:09:25.571Z,21.62
2019-02-27T13:11:55.491Z,20.57
2019-02-27T13:14:25.135Z,22.62
2019-02-27T13:16:55.341Z,21.73
2019-02-27T13:19:24.999Z,22.25
2019-02-27T13:21:55.015Z,21.40
2019-02-27T13:24:25.618Z,20.88
2019-02-27T13:26:56.258Z,20.37
2019-02-27T13:29:25.895Z,21.97
2019-02-27T13:31:56.614Z,23.12
2019-02-27T13:34:26.463Z,21.27
2019-02-27T13:36:56.311Z,23.45
2019-02-27T13:39:26.328Z,26.85
2019-02-27T13:41:55.995Z,27.00
2019-02-27T13:44:25.878Z,25.70
2019-02-27T13:46:57.032Z,27.37
2019-02-27T13:49:26.986Z,27.40
2019-02-27T13:51:56.716Z,28.20
2019-02-27T13:54:26.413Z,30.65
2019-02-27T13:56:56.035Z,35.13
2019-02-27T13:59:25.709Z,31.90
2019-02-27T14:01:55.338Z,30.60
2019-02-27T14:04:24.983Z,32.60
2019-02-27T14:06:54.627Z,42.17
2019-02-27T14:09:24.284Z,36.30
2019-02-27T14:11:58.390Z,35.45
2019-02-27T14:14:25.437Z,35.05
2019-02-27T14:16:55.071Z,36.35
2019-02-27T14:19:24.713Z,39.58
2019-02-27T14:21:56.083Z,37.55
2019-02-27T14:24:25.915Z,44.42
2019-02-27T14:26:55.538Z,42.62
2019-02-27T14:29:26.075Z,43.73
2019-02-27T14:31:56.522Z,42.75
2019-02-27T14:34:27.448Z,40.98
2019-02-27T14:36:58.793Z,53.48
2019-02-27T14:39:29.685Z,46.85
2019-02-27T14:42:00.119Z,48.63
2019-02-27T14:44:31.494Z,61.90
2019-02-27T14:47:02.141Z,51.73
2019-02-27T14:49:31.811Z,66.87
2019-02-27T14:52:01.444Z,46.60
2019-02-27T14:54:31.127Z,42.40
2019-02-27T14:57:00.834Z,37.20
2019-02-27T14:59:31.476Z,43.15
2019-02-27T15:02:01.432Z,55.98
2019-02-27T15:04:32.334Z,49.77
2019-02-27T15:07:02.513Z,51.53
2019-02-27T15:09:36.101Z,57.70
2019-02-27T15:12:03.547Z,66.87
2019-02-27T15:14:33.195Z,66.85
2019-02-27T15:17:03.155Z,73.85
2019-02-27T15:19:32.803Z,58.68
2019-02-27T15:22:02.446Z,41.55
2019-02-27T15:24:34.790Z,23.05
2019-02-27T15:27:03.464Z,24.43
2019-02-27T15:29:33.076Z,21.55
2019-02-27T15:32:02.707Z,26.33
2019-02-27T15:34:32.425Z,22.13
2019-02-27T15:37:04.187Z,21.17
2019-02-27T15:39:33.580Z,24.25
2019-02-27T15:42:03.297Z,21.65
2019-02-27T15:44:34.534Z,22.40
2019-02-27T15:47:04.892Z,20.52
2019-02-27T15:49:34.521Z,25.00
2019-02-27T15:52:07.007Z,28.17
2019-02-27T15:54:36.648Z,30.85
2019-02-27T15:57:06.312Z,31.12
2019-02-27T15:59:40.619Z,29.18
2019-02-27T16:02:07.298Z,25.82
2019-02-27T16:04:37.051Z,30.80
2019-02-27T16:07:06.704Z,27.87
2019-02-27T16:09:36.349Z,26.55
2019-02-27T16:12:06.238Z,25.25
2019-02-27T16:14:35.898Z,33.35
2019-02-27T16:17:05.559Z,28.27
2019-02-27T16:19:35.197Z,26.40
2019-02-27T16:22:04.875Z,29.40
2019-02-27T16:24:34.677Z,28.27
2019-02-27T16:27:05.005Z,28.87
2019-02-27T16:29:34.624Z,30.08
2019-02-27T16:32:04.852Z,32.45
2019-02-27T16:34:34.488Z,32.70
2019-02-27T16:37:05.932Z,37.38
2019-02-27T16:39:40.877Z,39.00
2019-02-27T16:42:07.065Z,36.42
2019-02-27T16:44:36.698Z,32.73
2019-02-27T16:47:06.347Z,29.90
2019-02-27T16:49:35.989Z,28.07
2019-02-27T16:52:08.767Z,30.65
2019-02-27T16:54:37.140Z,30.97
2019-02-27T16:57:07.059Z,31.17
2019-02-27T16:59:36.786Z,26.77
2019-02-27T17:02:06.415Z,27.02
2019-02-27T17:04:36.405Z,25.68
2019-02-27T17:07:07.192Z,26.77
2019-02-27T17:09:36.809Z,27.87
2019-02-27T17:12:06.980Z,26.50
2019-02-27T17:14:39.293Z,25.80
2019-02-27T17:17:09.205Z,29.52
2019-02-27T17:19:38.827Z,27.02
2019-02-27T17:22:08.489Z,29.40
2019-02-27T17:24:38.166Z,28.47
2019-02-27T17:27:12.581Z,26.25
2019-02-27T17:29:39.120Z,25.90
2019-02-27T17:32:08.932Z,24.43
2019-02-27T17:34:38.589Z,27.35
2019-02-27T17:37:08.206Z,27.22
2019-02-27T17:39:37.864Z,32.08
2019-02-27T17:42:07.821Z,30.80
2019-02-27T17:44:38.869Z,28.38
2019-02-27T17:47:10.258Z,29.87
2019-02-27T17:49:40.624Z,26.52
2019-02-27T17:52:11.510Z,28.15
2019-02-27T17:54:41.434Z,29.23
2019-02-27T17:57:11.214Z,31.70
2019-02-27T17:59:42.436Z,31.70
2019-02-27T18:02:12.517Z,32.25
2019-02-27T18:04:42.172Z,35.48
2019-02-27T18:07:11.835Z,36.08
2019-02-27T18:09:41.479Z,43.35
2019-02-27T18:12:11.165Z,38.88
2019-02-27T18:14:44.525Z,39.65
2019-02-27T18:17:12.116Z,44.23
2019-02-27T18:19:41.830Z,47.90
2019-02-27T18:22:14.665Z,47.33
2019-02-27T18:24:42.852Z,44.45
2019-02-27T18:27:12.483Z,50.58
2019-02-27T18:29:44.499Z,44.18
2019-02-27T18:32:15.030Z,47.58
2019-02-27T18:34:45.349Z,40.45
2019-02-27T18:37:19.074Z,40.48
2019-02-27T18:39:47.972Z,36.85
2019-02-27T18:42:20.725Z,35.60
2019-02-27T18:44:52.121Z,42.53
2019-02-27T18:47:24.096Z,40.35
2019-02-27T18:49:55.644Z,36.60
2019-02-27T18:52:25.499Z,41.23
2019-02-27T18:54:56.153Z,43.83
2019-02-27T18:57:25.971Z,43.28
2019-02-27T18:59:57.455Z,48.65
2019-02-27T19:02:27.995Z,46.60
2019-02-27T19:04:57.911Z,48.58
2019-02-27T19:07:28.619Z,47.08
2019-02-27T19:09:58.480Z,44.97
2019-02-27T19:12:28.698Z,37.75
2019-02-27T19:14:58.503Z,37.28
2019-02-27T19:17:31.076Z,36.38
2019-02-27T19:19:59.888Z,34.73
2019-02-27T19:22:29.618Z,35.15
2019-02-27T19:25:00.192Z,33.90
2019-02-27T19:27:31.496Z,36.65
2019-02-27T19:30:06.332Z,41.70
2019-02-27T19:32:34.066Z,36.08
2019-02-27T19:35:03.958Z,39.40
2019-02-27T19:37:36.418Z,35.80
2019-02-27T19:40:05.876Z,38.65
2019-02-27T19:42:35.857Z,56.83
2019-02-27T19:45:05.753Z,71.37
2019-02-27T19:47:35.382Z,75.15
2019-02-27T19:50:08.488Z,66.07
2019-02-27T19:52:37.266Z,52.20
2019-02-27T19:55:07.258Z,44.30
2019-02-27T19:57:39.289Z,44.77
2019-02-27T20:00:10.087Z,42.08
2019-02-27T20:02:40.338Z,43.48
2019-02-27T20:05:10.282Z,38.20
2019-02-27T20:07:40.959Z,33.83
2019-02-27T20:10:12.167Z,34.35
2019-02-27T20:12:41.932Z,36.25
2019-02-27T20:15:12.574Z,34.55
2019-02-27T20:17:42.470Z,34.27
2019-02-27T20:20:13.627Z,34.20
2019-02-27T20:22:43.498Z,32.60
2019-02-27T20:25:14.679Z,37.30
2019-02-27T20:27:44.540Z,35.30
2019-02-27T20:30:17.100Z,35.92
2019-02-27T20:32:47.258Z,32.25
2019-02-27T20:35:20.821Z,36.23
2019-02-27T20:37:49.684Z,35.25
2019-02-27T20:40:19.495Z,32.48
2019-02-27T20:42:50.384Z,37.40
2019-02-27T20:45:20.944Z,36.05
2019-02-27T20:47:54.603Z,40.17
2019-02-27T20:50:34.709Z,37.50
2019-02-27T20:53:00.638Z,35.58
2019-02-27T20:55:30.873Z,36.63
2019-02-27T20:58:01.517Z,34.38
2019-02-27T21:00:36.079Z,34.90
2019-02-27T21:03:02.783Z,40.90
2019-02-27T21:05:32.636Z,36.75
2019-02-27T21:08:02.679Z,34.70
2019-02-27T21:10:32.840Z,36.10
2019-02-27T21:13:02.568Z,35.13
2019-02-27T21:15:33.474Z,37.65
2019-02-27T21:18:03.380Z,39.90
2019-02-27T21:20:33.324Z,35.40
2019-02-27T21:23:03.198Z,37.98
2019-02-27T21:25:32.818Z,33.33
2019-02-27T21:28:06.795Z,36.35
2019-02-27T21:30:33.812Z,33.90
2019-02-27T21:33:03.458Z,35.17
2019-02-27T21:35:33.168Z,39.83
2019-02-27T21:38:02.875Z,39.50
2019-02-27T21:40:33.362Z,38.07
2019-02-27T21:43:04.899Z,43.00
2019-02-27T21:45:37.127Z,38.40
2019-02-27T21:48:06.138Z,37.88
2019-02-27T21:50:39.657Z,38.88
2019-02-27T21:53:07.173Z,36.77
2019-02-27T21:55:36.805Z,36.55
2019-02-27T21:58:06.548Z,36.13
2019-02-27T22:00:36.456Z,37.23
2019-02-27T22:03:06.294Z,40.73
2019-02-27T22:05:42.477Z,41.28
2019-02-27T22:08:07.455Z,41.15
2019-02-27T22:10:37.369Z,40.67
2019-02-27T22:13:10.600Z,41.93
2019-02-27T22:15:38.501Z,41.28
2019-02-27T22:18:11.254Z,39.30
2019-02-27T22:20:39.706Z,40.47
2019-02-27T22:23:12.723Z,42.50
2019-02-27T22:25:40.883Z,41.60
2019-02-27T22:28:10.575Z,43.33
2019-02-27T22:30:40.293Z,45.47
2019-02-27T22:33:09.994Z,42.50
2019-02-27T22:35:40.734Z,46.40
2019-02-27T22:38:11.461Z,44.27
2019-02-27T22:40:41.211Z,48.37
2019-02-27T22:43:10.988Z,47.53
2019-02-27T22:45:44.009Z,49.07
2019-02-27T22:48:12.112Z,46.73
2019-02-27T22:50:41.931Z,48.30
2019-02-27T22:53:11.651Z,45.48
2019-02-27T22:55:42.298Z,51.80
2019-02-27T22:58:12.853Z,48.55
2019-02-27T23:01:21.456Z,48.17
2019-02-27T23:03:57.786Z,48.83
2019-02-27T23:06:28.266Z,50.60
2019-02-27T23:08:58.121Z,50.87
2019-02-27T23:11:27.934Z,49.80
2019-02-27T23:13:57.607Z,50.13
2019-02-27T23:16:29.815Z,54.63
2019-02-27T23:18:58.631Z,53.33
2019-02-27T23:21:28.442Z,54.20
2019-02-27T23:23:58.442Z,52.60
2019-02-27T23:26:28.188Z,52.63
2019-02-27T23:28:57.911Z,58.80
2019-02-27T23:31:27.606Z,59.07
2019-02-27T23:33:57.221Z,55.00
2019-02-27T23:36:26.859Z,56.67
2019-02-27T23:38:56.502Z,57.50
2019-02-27T23:41:26.130Z,59.60
2019-02-27T23:43:55.838Z,62.27
2019-02-27T23:46:25.551Z,58.83
2019-02-27T23:48:55.221Z,59.60
2019-02-27T23:51:24.939Z,58.60
2019-02-27T23:53:54.574Z,60.00
2019-02-27T23:56:24.205Z,61.87
2019-02-27T23:58:53.872Z,63.10
